createdAt,value
2018-04-07T00:02:21.731Z,57.90
2018-04-07T00:04:52.664Z,58.50
2018-04-07T00:07:23.697Z,59.20
2018-04-07T00:09:57.817Z,58.63
2018-04-07T00:12:27.944Z,57.58
2018-04-07T00:14:57.651Z,57.64
2018-04-07T00:17:28.272Z,57.53
2018-04-07T00:19:59.001Z,58.63
2018-04-07T00:22:29.865Z,59.00
2018-04-07T00:25:01.648Z,58.87
2018-04-07T00:27:33.613Z,58.48
2018-04-07T00:30:04.205Z,58.21
2018-04-07T00:32:34.372Z,57.82
2018-04-07T00:35:05.852Z,57.90
2018-04-07T00:37:36.430Z,56.82
2018-04-07T00:40:07.383Z,56.87
2018-04-07T00:42:38.328Z,57.21
2018-04-07T00:45:08.949Z,57.59
2018-04-07T00:47:38.653Z,57.88
2018-04-07T00:50:09.539Z,57.59
2018-04-07T00:52:51.479Z,57.88
2018-04-07T00:55:20.900Z,58.53
2018-04-07T00:57:49.997Z,58.99
2018-04-07T01:00:19.291Z,58.30
2018-04-07T01:02:48.705Z,58.38
2018-04-07T01:05:17.984Z,58.47
2018-04-07T01:07:47.328Z,58.10
2018-04-07T01:10:17.103Z,58.28
2018-04-07T01:12:47.693Z,57.20
2018-04-07T01:15:18.354Z,57.78
2018-04-07T01:17:48.975Z,57.69
2018-04-07T01:20:20.895Z,58.02
2018-04-07T01:22:51.530Z,58.72
2018-04-07T01:25:22.660Z,57.81
2018-04-07T01:27:53.259Z,58.49
2018-04-07T01:30:24.376Z,58.60
2018-04-07T01:32:55.408Z,58.22
2018-04-07T01:35:25.498Z,57.90
2018-04-07T01:37:56.148Z,58.43
2018-04-07T01:40:27.032Z,58.17
2018-04-07T01:42:57.857Z,58.39
2018-04-07T01:45:28.805Z,58.53
2018-04-07T01:47:59.756Z,57.88
2018-04-07T01:50:31.228Z,58.66
2018-04-07T01:53:01.893Z,57.85
2018-04-07T01:55:32.861Z,57.92
2018-04-07T01:58:04.004Z,57.23
2018-04-07T02:00:35.073Z,57.35
2018-04-07T02:03:05.809Z,57.53
2018-04-07T02:05:36.880Z,57.04
2018-04-07T02:08:07.769Z,57.38
2018-04-07T02:10:39.337Z,57.29
2018-04-07T02:13:10.029Z,57.12
2018-04-07T02:15:40.852Z,56.95
2018-04-07T02:18:11.824Z,56.81
2018-04-07T02:20:43.454Z,56.98
2018-04-07T02:23:13.500Z,56.79
2018-04-07T02:25:44.116Z,56.73
2018-04-07T02:28:15.020Z,56.19
2018-04-07T02:30:46.069Z,57.09
2018-04-07T02:33:17.381Z,57.25
2018-04-07T02:35:48.974Z,57.23
2018-04-07T02:38:20.750Z,57.32
2018-04-07T02:40:50.848Z,57.32
2018-04-07T02:43:21.667Z,57.72
2018-04-07T02:45:52.484Z,57.67
2018-04-07T02:48:23.580Z,57.87
2018-04-07T02:50:54.420Z,57.58
2018-04-07T02:53:25.128Z,57.56
2018-04-07T02:55:56.291Z,57.80
2018-04-07T02:58:26.920Z,58.01
2018-04-07T03:00:57.677Z,57.91
2018-04-07T03:03:27.725Z,58.23
2018-04-07T03:05:59.249Z,58.21
2018-04-07T03:08:29.250Z,57.89
2018-04-07T03:11:00.002Z,58.17
2018-04-07T03:13:30.707Z,58.13
2018-04-07T03:16:01.528Z,58.50
2018-04-07T03:18:32.774Z,58.57
2018-04-07T03:21:03.913Z,58.52
2018-04-07T03:23:35.575Z,59.16
2018-04-07T03:26:05.235Z,58.75
2018-04-07T03:28:34.650Z,58.23
2018-04-07T03:31:03.665Z,58.51
2018-04-07T03:33:32.861Z,58.57
2018-04-07T03:36:02.126Z,59.05
2018-04-07T03:38:31.431Z,58.55
2018-04-07T03:41:00.724Z,58.64
2018-04-07T03:43:29.783Z,59.01
2018-04-07T03:45:58.959Z,58.72
2018-04-07T03:48:27.836Z,58.67
2018-04-07T03:50:56.797Z,59.32
2018-04-07T03:53:26.183Z,59.11
2018-04-07T03:55:55.527Z,59.10
2018-04-07T03:58:24.631Z,59.29
2018-04-07T04:00:53.556Z,59.17
2018-04-07T04:03:22.614Z,59.21
2018-04-07T04:05:51.604Z,58.71
2018-04-07T04:08:20.791Z,58.98
2018-04-07T04:10:49.819Z,59.58
2018-04-07T04:13:18.831Z,59.12
2018-04-07T04:15:47.836Z,59.50
2018-04-07T04:18:16.856Z,59.62
2018-04-07T04:20:47.079Z,59.42
2018-04-07T04:23:16.456Z,59.53
2018-04-07T04:25:45.563Z,59.59
2018-04-07T04:28:14.586Z,60.10
2018-04-07T04:30:43.891Z,59.83
2018-04-07T04:33:12.964Z,60.31
2018-04-07T04:35:42.294Z,60.02
2018-04-07T04:38:11.566Z,59.87
2018-04-07T04:40:40.620Z,59.79
2018-04-07T04:43:09.676Z,59.87
2018-04-07T04:45:39.045Z,60.31
2018-04-07T04:48:08.321Z,60.41
2018-04-07T04:50:37.345Z,60.42
2018-04-07T04:53:06.774Z,60.29
2018-04-07T04:55:36.036Z,60.09
2018-04-07T04:58:05.070Z,60.05
2018-04-07T05:00:34.431Z,60.54
2018-04-07T05:03:03.408Z,60.12
2018-04-07T05:05:32.419Z,59.85
2018-04-07T05:08:01.429Z,59.85
2018-04-07T05:10:30.448Z,59.75
2018-04-07T05:12:59.545Z,59.61
2018-04-07T05:15:28.504Z,59.65
2018-04-07T05:17:57.500Z,59.92
2018-04-07T05:20:26.486Z,59.52
2018-04-07T05:22:55.593Z,59.37
2018-04-07T05:25:24.895Z,59.13
2018-04-07T05:27:53.965Z,59.19
2018-04-07T05:30:23.166Z,58.74
2018-04-07T05:32:52.355Z,58.67
2018-04-07T05:35:21.461Z,58.25
2018-04-07T05:37:50.424Z,57.93
2018-04-07T05:40:19.408Z,58.08
2018-04-07T05:42:48.395Z,57.79
2018-04-07T05:45:17.539Z,57.49
2018-04-07T05:47:46.519Z,56.91
2018-04-07T05:50:15.468Z,56.56
2018-04-07T05:52:44.527Z,56.39
2018-04-07T05:55:13.533Z,56.02
2018-04-07T05:57:42.766Z,55.74
2018-04-07T06:00:11.805Z,54.35
2018-04-07T06:02:40.795Z,54.42
2018-04-07T06:05:10.050Z,54.26
2018-04-07T06:07:39.179Z,53.61
2018-04-07T06:10:08.338Z,53.26
2018-04-07T06:12:37.415Z,51.34
2018-04-07T06:15:06.495Z,51.17
2018-04-07T06:17:35.525Z,50.22
2018-04-07T06:20:04.268Z,48.10
2018-04-07T06:22:33.374Z,46.96
2018-04-07T06:25:02.316Z,49.62
2018-04-07T06:27:31.431Z,47.15
2018-04-07T06:30:00.760Z,45.07
2018-04-07T06:32:30.065Z,44.72
2018-04-07T06:34:59.563Z,44.16
2018-04-07T06:37:28.904Z,43.65
2018-04-07T06:39:58.263Z,43.43
2018-04-07T06:42:27.679Z,42.91
2018-04-07T06:44:56.996Z,43.25
2018-04-07T06:47:26.375Z,43.44
2018-04-07T06:49:55.795Z,42.44
2018-04-07T06:52:25.106Z,40.72
2018-04-07T06:54:54.616Z,40.12
2018-04-07T06:57:24.057Z,40.32
2018-04-07T06:59:54.824Z,39.36
2018-04-07T07:02:25.560Z,38.94
2018-04-07T07:04:57.829Z,38.59
2018-04-07T07:07:27.156Z,38.16
2018-04-07T07:09:57.857Z,38.27
2018-04-07T07:12:28.714Z,37.74
2018-04-07T07:14:59.599Z,38.28
2018-04-07T07:17:30.590Z,37.13
2018-04-07T07:20:01.105Z,36.33
2018-04-07T07:22:38.347Z,36.20
2018-04-07T07:25:07.500Z,35.38
2018-04-07T07:27:36.831Z,35.52
2018-04-07T07:30:06.192Z,36.10
2018-04-07T07:32:35.919Z,35.25
2018-04-07T07:35:06.658Z,35.33
2018-04-07T07:37:37.568Z,34.49
2018-04-07T07:40:10.504Z,34.55
2018-04-07T07:42:41.351Z,34.54
2018-04-07T07:45:12.532Z,34.77
2018-04-07T07:47:43.462Z,34.58
2018-04-07T07:50:14.090Z,34.00
2018-04-07T07:52:44.001Z,34.40
2018-04-07T07:55:14.515Z,34.80
2018-04-07T07:57:45.596Z,34.05
2018-04-07T08:00:16.385Z,34.24
2018-04-07T08:02:47.452Z,34.20
2018-04-07T08:05:18.129Z,33.70
2018-04-07T08:07:49.314Z,34.30
2018-04-07T08:10:20.324Z,33.26
2018-04-07T08:12:51.460Z,33.13
2018-04-07T08:15:22.576Z,33.79
2018-04-07T08:17:53.732Z,33.85
2018-04-07T08:20:24.700Z,33.33
2018-04-07T08:22:54.503Z,32.51
2018-04-07T08:25:25.144Z,32.28
2018-04-07T08:27:55.962Z,32.40
2018-04-07T08:30:26.932Z,31.77
2018-04-07T08:32:57.894Z,32.21
2018-04-07T08:35:29.502Z,31.89
2018-04-07T08:38:00.322Z,31.90
2018-04-07T08:40:30.806Z,31.60
2018-04-07T08:43:01.532Z,31.99
2018-04-07T08:45:32.522Z,31.15
2018-04-07T08:48:03.759Z,31.43
2018-04-07T08:50:35.396Z,30.72
2018-04-07T08:53:05.173Z,30.65
2018-04-07T08:55:35.887Z,30.55
2018-04-07T08:58:06.644Z,30.28
2018-04-07T09:00:37.487Z,29.99
2018-04-07T09:03:08.581Z,30.20
2018-04-07T09:05:39.502Z,30.06
2018-04-07T09:08:10.919Z,30.11
2018-04-07T09:10:41.502Z,30.37
2018-04-07T09:13:12.541Z,29.86
2018-04-07T09:15:43.568Z,29.15
2018-04-07T09:18:14.700Z,29.12
2018-04-07T09:20:45.467Z,29.27
2018-04-07T09:23:16.568Z,29.12
2018-04-07T09:25:47.877Z,29.25
2018-04-07T09:28:18.717Z,28.80
2018-04-07T09:30:48.585Z,29.06
2018-04-07T09:33:19.463Z,28.89
2018-04-07T09:35:50.183Z,29.18
2018-04-07T09:38:21.013Z,29.01
2018-04-07T09:40:52.904Z,29.00
2018-04-07T09:43:23.557Z,28.85
2018-04-07T09:45:54.155Z,27.81
2018-04-07T09:48:25.066Z,28.52
2018-04-07T09:50:55.872Z,28.50
2018-04-07T09:53:26.696Z,28.11
2018-04-07T09:55:58.077Z,27.21
2018-04-07T09:58:29.086Z,27.07
2018-04-07T10:01:02.235Z,26.71
2018-04-07T10:03:31.319Z,27.27
2018-04-07T10:06:02.003Z,27.21
2018-04-07T10:08:32.436Z,27.38
2018-04-07T10:11:03.952Z,27.00
2018-04-07T10:13:34.676Z,27.25
2018-04-07T10:16:05.534Z,27.55
2018-04-07T10:18:37.284Z,26.29
2018-04-07T10:21:08.247Z,26.71
2018-04-07T10:23:39.097Z,26.65
2018-04-07T10:26:08.669Z,25.87
2018-04-07T10:28:39.546Z,26.40
2018-04-07T10:31:10.642Z,25.32
2018-04-07T10:33:41.745Z,25.21
2018-04-07T10:36:12.211Z,25.89
2018-04-07T10:38:43.612Z,25.05
2018-04-07T10:41:13.154Z,24.83
2018-04-07T10:43:44.004Z,24.43
2018-04-07T10:46:14.608Z,24.40
2018-04-07T10:48:45.703Z,24.15
2018-04-07T10:51:16.553Z,23.66
2018-04-07T10:53:47.171Z,23.10
2018-04-07T10:56:19.094Z,22.70
2018-04-07T10:58:49.557Z,23.25
2018-04-07T11:01:21.800Z,22.95
2018-04-07T11:03:50.995Z,23.30
2018-04-07T11:06:21.778Z,23.58
2018-04-07T11:08:53.103Z,22.13
2018-04-07T11:11:23.011Z,22.44
2018-04-07T11:13:54.872Z,23.14
2018-04-07T11:16:24.978Z,21.47
2018-04-07T11:18:54.909Z,22.25
2018-04-07T11:21:24.672Z,21.68
2018-04-07T11:23:56.582Z,21.37
2018-04-07T11:26:26.596Z,21.57
2018-04-07T11:28:56.834Z,22.07
2018-04-07T11:31:25.985Z,21.26
2018-04-07T11:33:55.041Z,21.64
2018-04-07T11:36:23.578Z,21.44
2018-04-07T11:38:52.633Z,21.31
2018-04-07T11:41:21.727Z,21.39
2018-04-07T11:43:51.157Z,21.26
2018-04-07T11:46:20.727Z,21.67
2018-04-07T11:48:50.101Z,20.84
2018-04-07T11:51:19.258Z,21.79
2018-04-07T11:53:48.556Z,21.58
2018-04-07T11:56:17.783Z,21.72
2018-04-07T11:58:47.045Z,21.61
2018-04-07T12:01:16.097Z,21.71
2018-04-07T12:03:45.212Z,21.05
2018-04-07T12:06:15.162Z,20.72
2018-04-07T12:08:44.533Z,20.65
2018-04-07T12:11:13.763Z,19.92
2018-04-07T12:13:43.011Z,19.97
2018-04-07T12:16:12.303Z,20.20
2018-04-07T12:18:41.759Z,20.00
2018-04-07T12:21:11.020Z,20.47
2018-04-07T12:23:40.320Z,20.56
2018-04-07T12:26:09.358Z,20.03
2018-04-07T12:28:38.737Z,20.08
2018-04-07T12:31:07.815Z,20.42
2018-04-07T12:33:37.089Z,19.93
2018-04-07T12:36:07.029Z,19.86
2018-04-07T12:38:36.580Z,19.97
2018-04-07T12:41:06.194Z,19.68
2018-04-07T12:43:35.421Z,19.13
2018-04-07T12:46:04.844Z,19.86
2018-04-07T12:48:34.043Z,19.34
2018-04-07T12:51:03.682Z,18.48
2018-04-07T12:53:32.828Z,19.25
2018-04-07T12:56:01.855Z,19.79
2018-04-07T12:58:31.032Z,19.50
2018-04-07T13:01:00.130Z,19.13
2018-04-07T13:03:29.300Z,18.66
2018-04-07T13:05:58.424Z,18.75
2018-04-07T13:08:27.595Z,18.87
2018-04-07T13:10:56.884Z,17.94
2018-04-07T13:13:25.924Z,18.66
2018-04-07T13:15:55.048Z,19.43
2018-04-07T13:18:24.099Z,19.18
2018-04-07T13:20:53.645Z,18.28
2018-04-07T13:23:22.613Z,17.67
2018-04-07T13:25:51.771Z,18.77
2018-04-07T13:28:20.944Z,18.71
2018-04-07T13:30:50.082Z,18.58
2018-04-07T13:33:19.211Z,18.50
2018-04-07T13:35:49.568Z,18.74
2018-04-07T13:38:18.625Z,19.22
2018-04-07T13:40:47.979Z,18.81
2018-04-07T13:43:17.379Z,18.70
2018-04-07T13:45:46.442Z,18.72
2018-04-07T13:48:15.636Z,19.14
2018-04-07T13:50:44.742Z,18.95
2018-04-07T13:53:13.912Z,18.76
2018-04-07T13:55:43.235Z,19.16
2018-04-07T13:58:12.391Z,18.72
2018-04-07T14:00:41.819Z,19.15
2018-04-07T14:03:10.960Z,19.01
2018-04-07T14:05:40.344Z,19.35
2018-04-07T14:08:09.436Z,19.74
2018-04-07T14:10:38.862Z,19.21
2018-04-07T14:13:08.847Z,19.16
2018-04-07T14:15:37.853Z,19.17
2018-04-07T14:18:07.374Z,18.94
2018-04-07T14:36:49.514Z,20.12
2018-04-07T14:39:18.636Z,20.17
2018-04-07T14:44:43.176Z,19.53
2018-04-07T14:47:12.596Z,19.81
2018-04-07T14:49:42.788Z,20.05
2018-04-07T14:52:12.804Z,20.06
2018-04-07T14:54:42.146Z,20.06
2018-04-07T14:59:56.530Z,20.20
2018-04-07T15:02:25.983Z,19.90
2018-04-07T15:04:55.036Z,19.87
2018-04-07T15:07:24.084Z,20.07
2018-04-07T15:09:53.207Z,20.62
2018-04-07T15:12:22.310Z,20.58
2018-04-07T15:30:54.920Z,21.39
2018-04-07T15:33:24.972Z,21.50
2018-04-07T15:35:54.044Z,21.45
2018-04-07T15:38:23.043Z,21.39
2018-04-07T15:40:52.408Z,21.83
2018-04-07T15:43:21.547Z,22.34
2018-04-07T15:45:50.891Z,23.03
2018-04-07T15:48:20.221Z,22.59
2018-04-07T15:50:49.760Z,22.41
2018-04-07T15:53:22.200Z,22.56
2018-04-07T15:55:51.316Z,23.14
2018-04-07T15:58:23.989Z,23.08
2018-04-07T16:00:53.132Z,23.12
2018-04-07T16:03:38.206Z,23.21
2018-04-07T16:06:07.336Z,23.41
2018-04-07T16:08:38.061Z,23.21
2018-04-07T16:19:49.300Z,24.16
2018-04-07T16:22:18.482Z,24.07
2018-04-07T16:24:47.543Z,24.31
2018-04-07T16:27:16.794Z,24.03
2018-04-07T16:29:45.765Z,24.16
2018-04-07T16:32:14.732Z,24.20
2018-04-07T16:34:43.716Z,24.52
2018-04-07T16:37:12.605Z,24.48
2018-04-07T16:39:41.405Z,24.54
2018-04-07T16:42:10.370Z,24.77
2018-04-07T16:44:39.781Z,25.26
2018-04-07T16:47:08.772Z,25.48
2018-04-07T16:49:37.944Z,25.83
2018-04-07T16:52:07.061Z,26.13
2018-04-07T16:54:35.900Z,26.36
2018-04-07T16:57:04.921Z,26.37
2018-04-07T16:59:34.169Z,26.73
2018-04-07T17:02:03.157Z,26.94
2018-04-07T17:04:32.129Z,27.34
2018-04-07T17:07:02.032Z,27.22
2018-04-07T17:09:31.079Z,27.45
2018-04-07T17:12:00.321Z,27.76
2018-04-07T17:14:30.442Z,27.80
2018-04-07T17:16:59.440Z,28.05
2018-04-07T17:19:28.695Z,28.35
2018-04-07T17:21:57.836Z,28.51
2018-04-07T17:24:26.871Z,28.74
2018-04-07T17:26:55.913Z,28.59
2018-04-07T17:29:25.023Z,28.85
2018-04-07T17:31:55.090Z,29.25
2018-04-07T17:34:24.091Z,29.37
2018-04-07T17:36:53.183Z,29.13
2018-04-07T17:39:22.463Z,29.13
2018-04-07T17:41:52.708Z,29.64
2018-04-07T17:44:21.898Z,29.62
2018-04-07T17:46:50.979Z,29.81
2018-04-07T17:49:20.263Z,29.90
2018-04-07T17:51:49.801Z,30.15
2018-04-07T17:54:19.046Z,30.65
2018-04-07T17:56:48.024Z,30.95
2018-04-07T17:59:17.207Z,31.12
2018-04-07T18:01:46.834Z,31.28
2018-04-07T18:04:15.851Z,31.45
2018-04-07T18:06:45.226Z,31.84
2018-04-07T18:09:14.247Z,32.08
2018-04-07T18:11:43.247Z,31.93
2018-04-07T18:14:13.596Z,32.21
2018-04-07T18:16:42.641Z,32.36
2018-04-07T18:19:11.880Z,32.60
2018-04-07T18:21:41.536Z,32.65
2018-04-07T18:24:10.967Z,33.10
2018-04-07T18:26:40.186Z,33.18
2018-04-07T18:29:09.342Z,33.56
2018-04-07T18:31:38.375Z,33.82
2018-04-07T18:34:07.336Z,33.92
2018-04-07T18:36:36.394Z,34.10
2018-04-07T18:39:06.227Z,34.37
2018-04-07T18:41:35.780Z,34.62
2018-04-07T18:44:05.107Z,35.24
2018-04-07T18:46:35.847Z,35.48
2018-04-07T18:49:07.451Z,35.13
2018-04-07T18:51:37.321Z,35.05
2018-04-07T18:54:08.118Z,35.13
2018-04-07T18:56:39.693Z,36.17
2018-04-07T18:59:13.423Z,35.58
2018-04-07T19:01:42.320Z,35.80
2018-04-07T19:04:13.639Z,36.13
2018-04-07T19:06:42.642Z,35.85
2018-04-07T19:09:12.018Z,35.80
2018-04-07T19:11:42.430Z,36.17
2018-04-07T19:14:13.452Z,35.98
2018-04-07T19:16:45.304Z,35.93
2018-04-07T19:19:16.775Z,36.07
2018-04-07T19:21:46.164Z,36.12
2018-04-07T19:24:24.328Z,36.35
2018-04-07T19:26:53.819Z,36.38
2018-04-07T19:29:22.932Z,36.57
2018-04-07T19:31:51.955Z,36.84
2018-04-07T19:34:21.150Z,36.87
2018-04-07T19:36:51.939Z,37.11
2018-04-07T19:39:22.600Z,37.24
2018-04-07T19:41:53.547Z,37.20
2018-04-07T19:44:24.757Z,37.54
2018-04-07T19:46:55.908Z,37.32
2018-04-07T19:49:26.741Z,37.46
2018-04-07T19:51:57.470Z,37.93
2018-04-07T19:54:28.526Z,38.41
2018-04-07T19:56:59.470Z,38.72
2018-04-07T19:59:30.632Z,38.85
2018-04-07T20:02:01.165Z,39.03
2018-04-07T20:04:32.224Z,38.98
2018-04-07T20:07:02.915Z,39.34
2018-04-07T20:09:33.572Z,39.49
2018-04-07T20:12:04.573Z,39.85
2018-04-07T20:14:35.259Z,39.97
2018-04-07T20:17:05.856Z,40.29
2018-04-07T20:19:36.701Z,40.31
2018-04-07T20:22:07.577Z,40.53
2018-04-07T20:24:38.653Z,40.68
2018-04-07T20:27:09.345Z,40.80
2018-04-07T20:29:40.348Z,40.95
2018-04-07T20:32:10.316Z,41.16
2018-04-07T20:34:41.144Z,41.51
2018-04-07T20:37:12.012Z,41.79
2018-04-07T20:39:42.815Z,41.75
2018-04-07T20:42:24.222Z,42.63
2018-04-07T20:44:53.298Z,43.30
2018-04-07T20:47:26.106Z,43.02
2018-04-07T20:49:55.868Z,42.80
2018-04-07T20:52:24.872Z,42.89
2018-04-07T20:54:54.380Z,42.84
2018-04-07T20:57:23.511Z,42.80
2018-04-07T20:59:52.506Z,43.09
2018-04-07T21:02:21.341Z,43.84
2018-04-07T21:04:52.331Z,43.90
2018-04-07T21:07:23.162Z,43.68
2018-04-07T21:09:53.944Z,43.85
2018-04-07T21:12:24.600Z,44.12
2018-04-07T21:14:55.727Z,43.84
2018-04-07T21:17:26.550Z,44.27
2018-04-07T21:19:58.019Z,44.33
2018-04-07T21:22:28.759Z,44.89
2018-04-07T21:24:59.384Z,45.92
2018-04-07T21:27:30.130Z,45.54
2018-04-07T21:30:00.983Z,45.97
2018-04-07T21:32:31.572Z,45.96
2018-04-07T21:35:02.476Z,45.96
2018-04-07T21:37:33.342Z,45.72
2018-04-07T21:40:04.438Z,46.74
2018-04-07T21:42:35.076Z,46.32
2018-04-07T21:45:06.002Z,46.31
2018-04-07T21:47:35.876Z,46.98
2018-04-07T21:50:06.686Z,47.23
2018-04-07T21:52:37.298Z,47.23
2018-04-07T21:55:08.451Z,48.14
2018-04-07T21:57:39.527Z,47.38
2018-04-07T22:00:10.264Z,47.01
2018-04-07T22:02:41.027Z,46.97
2018-04-07T22:05:11.597Z,46.79
2018-04-07T22:07:42.647Z,47.47
2018-04-07T22:10:13.372Z,47.10
2018-04-07T22:12:43.279Z,47.76
2018-04-07T22:15:14.049Z,47.99
2018-04-07T22:17:44.667Z,49.55
2018-04-07T22:20:19.305Z,50.10
2018-04-07T22:22:49.178Z,48.98
2018-04-07T22:25:19.865Z,48.69
2018-04-07T22:27:50.371Z,50.26
2018-04-07T22:30:21.417Z,50.00
2018-04-07T22:32:52.577Z,50.74
2018-04-07T22:35:23.544Z,49.72
2018-04-07T22:37:54.437Z,49.25
2018-04-07T22:40:25.687Z,48.99
2018-04-07T22:42:57.036Z,49.50
2018-04-07T22:45:27.849Z,48.91
2018-04-07T22:47:58.767Z,48.89
2018-04-07T22:50:29.566Z,49.84
2018-04-07T22:53:01.192Z,48.96
2018-04-07T22:55:32.050Z,48.77
2018-04-07T22:58:03.171Z,48.69
2018-04-07T23:00:34.062Z,48.86
2018-04-07T23:03:05.448Z,48.77
2018-04-07T23:05:35.278Z,49.37
2018-04-07T23:08:04.339Z,49.61
2018-04-07T23:10:33.352Z,49.57
2018-04-07T23:13:02.353Z,50.00
2018-04-07T23:15:31.715Z,49.81
2018-04-07T23:18:00.940Z,49.84
2018-04-07T23:20:30.413Z,49.69
2018-04-07T23:22:59.515Z,50.22
2018-04-07T23:25:28.833Z,49.80
2018-04-07T23:27:58.205Z,49.85
2018-04-07T23:30:27.371Z,49.92
2018-04-07T23:32:56.380Z,49.74
2018-04-07T23:35:25.595Z,49.68
2018-04-07T23:37:54.872Z,49.93
2018-04-07T23:40:24.100Z,50.20
2018-04-07T23:42:53.307Z,50.08
2018-04-07T23:45:22.695Z,50.17
2018-04-07T23:47:51.661Z,50.21
2018-04-07T23:50:20.960Z,50.37
2018-04-07T23:52:50.171Z,50.68
2018-04-07T23:55:19.433Z,50.75
2018-04-07T23:57:48.496Z,51.06
